Strona główna
METAR-TAF:

METAR-TAF

Lotnisko :

Penn Valley Airport

Selinsgrove, Pensylwania, Stany Zjednoczone

Szerokość geograficzna: 40-49-09N, Długość geograficzna: 076-51-58W, wysokość: 137 m

Aktualna obserwacja pogody

Raport powstał 31 minut temu, godzina 21:53 UTC
Wiatr 6 kt od południe
Temperatura 3°C
Wilgotność 60%
Ciśnienie 1027 hPa
Widzialność: 16.1 km
Przerywane chmury na wysokości 6000 ft

METAR: KSEG 082153Z AUTO 18006KT 10SM BKN060 03/M04 A3032 RMK AO2 SLP273 T00331039

czas: 17:24 (22:24 UTC)


TAF: brakujący

Obserwacja i prognoza pogody dla ponad 4000 lotnisk (raport METAR i TAF).

Dostępne stacje oznaczono żółtymi i czerwonymi punktami na mapie.

Najedź kursorem aby zobaczyć nazwę stacji.

Kliknij aby zobaczyć obserwacje i prognozy pogody.

Aby zmienić mapę: kliknij na zielony przycisk z czarnym krzyżykiem, aby powiększyć; na zielony przycisk z myślnikiem, aby pomniejszyć; na zielone strzałki, aby przejść do map sąsiednich.


METAR-TAF: